Time;durP1;ratioP1;P1;durP2;ratioP2;P2;SDS_P1;SDS_P2;PMS_P1;PMS_P2;Temp;Humidity;BMP_temperature;BMP_pressure;BME280_temperature;BME280_humidity;BME280_pressure;Samples;Min_cycle;Max_cycle;Signal;HPM_P1;HPM_P2
2023/09/30 00:03:53;;;;;;;5.90;3.97;;;;;;;20.22;58.76;97549.75;10313398;28;20034;-27
2023/09/30 00:08:53;;;;;;;5.70;3.92;;;;;;;20.21;58.66;97542.09;10310635;28;20400;-27
2023/09/30 00:13:54;;;;;;;5.73;3.50;;;;;;;20.21;58.88;97542.09;10296410;28;20038;-26
2023/09/30 00:18:54;;;;;;;4.20;3.13;;;;;;;20.19;58.96;97538.72;10304836;28;20045;-27
2023/09/30 00:23:54;;;;;;;4.80;3.47;;;;;;;20.20;58.86;97520.06;10305239;28;20048;-27
2023/09/30 00:28:55;;;;;;;3.90;3.00;;;;;;;20.21;58.75;97526.84;10287432;28;20061;-27
2023/09/30 00:33:56;;;;;;;4.28;2.53;;;;;;;20.20;59.31;97514.97;10303723;28;20046;-27
2023/09/30 00:38:56;;;;;;;4.63;3.10;;;;;;;20.20;58.82;97509.88;10318830;28;20401;-27
2023/09/30 00:43:56;;;;;;;6.13;3.80;;;;;;;20.19;58.96;97518.38;10302320;28;20416;-27
2023/09/30 00:48:58;;;;;;;4.07;3.00;;;;;;;20.20;58.72;97527.69;10296334;28;20517;-26
2023/09/30 00:54:00;;;;;;;5.28;3.30;;;;;;;20.19;58.94;97528.53;10301068;28;20381;-27
2023/09/30 00:59:00;;;;;;;5.30;3.53;;;;;;;20.19;58.66;97518.38;10290055;28;20041;-26
2023/09/30 01:04:01;;;;;;;4.70;3.30;;;;;;;20.18;58.72;97525.13;10297460;28;20060;-26
2023/09/30 01:09:02;;;;;;;4.83;2.80;;;;;;;20.19;58.67;97531.91;10303178;28;20405;-26
2023/09/30 01:14:03;;;;;;;4.30;2.83;;;;;;;20.18;58.65;97516.66;10291326;28;20035;-27
2023/09/30 01:19:04;;;;;;;5.00;3.03;;;;;;;20.16;58.98;97519.19;10283974;28;20030;-27
2023/09/30 01:24:04;;;;;;;3.80;2.60;;;;;;;20.19;58.64;97510.75;10285937;28;20282;-27
2023/09/30 01:29:05;;;;;;;4.00;2.63;;;;;;;20.18;58.74;97517.50;10295314;28;20097;-27
2023/09/30 01:34:05;;;;;;;4.37;2.63;;;;;;;20.19;58.55;97506.47;10292818;28;20042;-27
2023/09/30 01:39:07;;;;;;;3.92;2.60;;;;;;;20.17;58.82;97520.06;10298768;28;20046;-26
2023/09/30 01:44:09;;;;;;;6.20;2.90;;;;;;;20.17;58.59;97515.81;10307455;28;20038;-27
2023/09/30 01:49:10;;;;;;;3.30;2.60;;;;;;;20.17;58.19;97512.44;10314678;28;20023;-26
2023/09/30 01:54:11;;;;;;;3.97;2.43;;;;;;;20.13;58.53;97508.16;10296149;28;20039;-26
2023/09/30 01:59:11;;;;;;;3.33;2.17;;;;;;;20.17;58.49;97509.88;10298777;28;20072;-27
2023/09/30 02:04:15;;;;;;;3.00;1.90;;;;;;;20.17;58.54;97509.88;10296353;28;20045;-26
2023/09/30 02:09:16;;;;;;;3.13;2.05;;;;;;;20.15;58.47;97516.63;10300105;28;20026;-27
2023/09/30 02:14:16;;;;;;;3.00;2.08;;;;;;;20.16;58.38;97533.56;10301857;28;20034;-27
2023/09/30 02:19:17;;;;;;;3.33;2.57;;;;;;;20.15;58.67;97532.75;10295481;28;20453;-27
2023/09/30 02:24:17;;;;;;;4.05;2.42;;;;;;;20.18;58.57;97526.84;10309755;28;20408;-27
2023/09/30 02:29:17;;;;;;;3.60;2.37;;;;;;;20.16;58.44;97531.03;10295188;28;20489;-27
2023/09/30 02:34:18;;;;;;;3.57;2.20;;;;;;;20.14;58.56;97530.19;10295971;28;20034;-27
2023/09/30 02:39:19;;;;;;;3.03;2.10;;;;;;;20.15;58.55;97527.66;10286841;28;20357;-28
2023/09/30 02:44:20;;;;;;;2.42;1.80;;;;;;;20.15;58.60;97519.16;10303926;28;20157;-28
2023/09/30 02:49:21;;;;;;;3.53;2.23;;;;;;;20.15;58.33;97521.72;10299042;28;20517;-27
2023/09/30 02:54:21;;;;;;;2.97;2.05;;;;;;;20.15;58.08;97530.22;10293063;28;20301;-27
2023/09/30 02:59:23;;;;;;;3.30;2.17;;;;;;;20.15;58.36;97532.75;10290649;28;20042;-26
2023/09/30 03:04:25;;;;;;;2.53;1.90;;;;;;;20.15;58.29;97530.22;10294890;28;20026;-26
2023/09/30 03:09:26;;;;;;;2.40;1.48;;;;;;;20.14;58.53;97525.09;10295667;28;20039;-27
2023/09/30 03:14:26;;;;;;;3.73;2.03;;;;;;;20.15;58.22;97537.84;10294738;28;20050;-27
2023/09/30 03:19:27;;;;;;;2.60;1.70;;;;;;;20.15;58.51;97542.91;10291497;28;20034;-28
2023/09/30 03:24:27;;;;;;;2.50;1.80;;;;;;;20.16;58.24;97556.47;10291791;28;20298;-27
2023/09/30 03:29:27;;;;;;;2.65;1.75;;;;;;;20.15;58.59;97540.38;10299567;28;20034;-26
2023/09/30 03:34:28;;;;;;;4.13;2.00;;;;;;;20.15;58.37;97536.97;10288847;28;20041;-26
2023/09/30 03:39:29;;;;;;;2.63;1.88;;;;;;;20.14;57.91;97520.00;10297014;28;20043;-27
2023/09/30 03:44:29;;;;;;;2.47;1.57;;;;;;;20.11;58.42;97502.22;10296457;28;20509;-27
2023/09/30 03:49:30;;;;;;;2.53;1.70;;;;;;;20.15;58.44;97491.19;10296449;28;20057;-27
2023/09/30 03:54:31;;;;;;;2.83;2.20;;;;;;;20.15;58.24;97484.44;10285832;28;20120;-27
2023/09/30 03:59:31;;;;;;;2.00;1.63;;;;;;;20.14;58.17;97469.16;10292729;28;20088;-28
2023/09/30 04:04:34;;;;;;;3.37;1.70;;;;;;;20.14;58.26;97479.34;10289558;28;20374;-27
2023/09/30 04:09:34;;;;;;;2.70;2.00;;;;;;;20.15;58.33;97498.84;10292672;28;20031;-27
2023/09/30 04:14:34;;;;;;;2.93;1.90;;;;;;;20.13;58.16;97503.06;10288576;28;20050;-28
2023/09/30 04:19:35;;;;;;;2.40;1.50;;;;;;;20.14;58.07;97509.84;10289565;28;20046;-26
2023/09/30 04:24:35;;;;;;;2.87;1.80;;;;;;;20.15;58.33;97509.00;10292355;28;20046;-26
2023/09/30 04:29:35;;;;;;;2.17;1.60;;;;;;;20.14;58.11;97509.84;10303067;28;20181;-27
2023/09/30 04:34:36;;;;;;;1.88;1.13;;;;;;;20.14;58.23;97517.47;10293874;28;20034;-26
2023/09/30 04:39:36;;;;;;;1.90;1.37;;;;;;;20.15;58.14;97536.97;10292371;28;20058;-26
2023/09/30 04:44:38;;;;;;;2.53;1.43;;;;;;;20.14;58.18;97530.19;10286553;28;20699;-27
2023/09/30 04:49:38;;;;;;;2.60;1.50;;;;;;;20.14;58.15;97535.28;10284165;28;20117;-27
2023/09/30 04:54:38;;;;;;;2.30;1.50;;;;;;;20.13;58.23;97528.50;10284820;28;20751;-27
2023/09/30 04:59:39;;;;;;;2.60;1.50;;;;;;;20.14;58.06;97522.56;10287099;28;20078;-26
2023/09/30 05:04:39;;;;;;;2.83;1.58;;;;;;;20.15;58.52;97544.59;10294170;28;20046;-27
2023/09/30 05:09:41;;;;;;;2.20;1.37;;;;;;;20.13;58.15;97543.75;10303049;28;20042;-27
2023/09/30 05:14:41;;;;;;;2.10;1.48;;;;;;;20.11;58.13;97555.59;10301427;28;20510;-27
2023/09/30 05:19:41;;;;;;;2.47;1.60;;;;;;;20.14;58.16;97556.47;10293565;28;20069;-27
2023/09/30 05:24:42;;;;;;;2.17;1.60;;;;;;;20.14;58.10;97550.53;10300594;28;20035;-27
2023/09/30 05:29:42;;;;;;;1.97;1.40;;;;;;;20.13;58.16;97543.75;10297690;28;20158;-27
2023/09/30 05:34:43;;;;;;;1.85;1.30;;;;;;;20.13;58.11;97548.81;10299419;28;20043;-26
2023/09/30 05:39:44;;;;;;;1.90;1.45;;;;;;;20.12;58.35;97545.44;10289317;28;20405;-26
2023/09/30 05:44:45;;;;;;;2.60;1.55;;;;;;;20.13;58.05;97559.88;10287307;28;20049;-26
2023/09/30 05:49:46;;;;;;;2.22;1.48;;;;;;;20.13;57.91;97574.25;10300359;28;20038;-27
2023/09/30 05:54:46;;;;;;;7.73;1.80;;;;;;;20.17;58.72;97548.03;10296735;28;20035;-26
2023/09/30 05:59:46;;;;;;;6.20;1.70;;;;;;;20.19;58.63;97553.97;10300235;28;20114;-27
2023/09/30 06:04:47;;;;;;;8.80;4.50;;;;;;;20.26;59.16;97571.78;10280383;28;20498;-27
2023/09/30 06:09:49;;;;;;;7.95;3.25;;;;;;;20.31;60.38;97571.81;10293373;28;20298;-26
2023/09/30 06:14:49;;;;;;;4.90;2.00;;;;;;;20.23;58.96;97566.72;10300759;28;20125;-27
2023/09/30 06:19:50;;;;;;;11.13;3.87;;;;;;;20.11;59.97;97570.84;10293375;28;20497;-26
2023/09/30 06:24:50;;;;;;;6.43;3.45;;;;;;;20.05;60.19;97560.63;10294017;28;20047;-27
2023/09/30 06:29:51;;;;;;;6.63;3.30;;;;;;;20.00;60.01;97562.28;10288513;28;20030;-27
2023/09/30 06:34:52;;;;;;;8.37;4.20;;;;;;;19.98;60.28;97579.19;10299225;28;20042;-27
2023/09/30 06:39:53;;;;;;;6.72;3.65;;;;;;;20.13;60.06;97581.88;10297733;28;20027;-27
2023/09/30 06:44:53;;;;;;;7.97;4.07;;;;;;;20.21;59.89;97581.09;10296640;28;20038;-29
2023/09/30 06:49:54;;;;;;;7.67;3.30;;;;;;;20.28;59.25;97592.16;10292765;28;20085;-28
2023/09/30 06:54:55;;;;;;;8.93;3.33;;;;;;;20.31;59.61;97603.22;10291162;28;21684;-27
2023/09/30 06:59:55;;;;;;;5.32;2.63;;;;;;;20.27;59.05;97611.63;10297779;28;21107;-26
2023/09/30 07:04:55;;;;;;;9.00;3.40;;;;;;;20.28;59.43;97612.50;10288678;28;20105;-27
2023/09/30 07:09:56;;;;;;;4.72;2.88;;;;;;;20.24;59.49;97615.84;10294381;28;20035;-27
2023/09/30 07:14:57;;;;;;;9.10;3.50;;;;;;;20.25;61.09;97622.66;10287929;28;20517;-26
2023/09/30 07:19:58;;;;;;;15.50;3.42;;;;;;;20.25;60.64;97620.13;10290437;28;20026;-27
2023/09/30 07:25:00;;;;;;;8.00;3.30;;;;;;;20.26;60.23;97614.19;10296550;28;20039;-26
2023/09/30 07:30:01;;;;;;;14.13;3.75;;;;;;;20.28;60.97;97615.06;10298653;28;20033;-27
2023/09/30 07:35:01;;;;;;;11.13;3.40;;;;;;;20.30;60.32;97618.44;10292373;28;20039;-27
2023/09/30 07:40:02;;;;;;;12.82;4.65;;;;;;;20.21;62.78;97608.22;10298512;28;20038;-27
2023/09/30 07:45:04;;;;;;;11.20;4.57;;;;;;;20.03;63.23;97613.97;10290593;28;20054;-26
2023/09/30 07:50:09;;;;;;;12.70;4.63;;;;;;;20.03;63.35;97638.56;10289858;28;20085;-26
2023/09/30 07:55:10;;;;;;;11.93;4.85;;;;;;;20.00;63.58;97659.72;10283877;28;20382;-26
2023/09/30 08:00:14;;;;;;;8.95;4.10;;;;;;;20.11;62.55;97636.97;10293091;28;20043;-27
2023/09/30 08:05:15;;;;;;;10.98;4.38;;;;;;;20.18;61.48;97628.53;10283835;28;20042;-27
2023/09/30 08:10:16;;;;;;;9.65;4.32;;;;;;;20.10;61.04;97604.75;10291632;28;20085;-27
2023/09/30 08:15:17;;;;;;;8.63;3.58;;;;;;;20.21;60.93;97619.25;10290622;28;20679;-26
2023/09/30 08:20:18;;;;;;;17.27;4.05;;;;;;;20.20;61.55;97624.31;10296546;28;20057;-26
2023/09/30 08:25:19;;;;;;;8.93;4.15;;;;;;;20.22;60.57;97609.91;10289313;28;20462;-27
2023/09/30 08:30:19;;;;;;;8.83;4.53;;;;;;;20.15;62.53;97593.78;10292280;28;20170;-27
2023/09/30 08:35:19;;;;;;;9.50;4.53;;;;;;;20.11;61.69;97606.44;10273940;28;20039;-26
2023/09/30 08:40:21;;;;;;;10.47;4.50;;;;;;;20.06;63.17;97616.59;10279950;28;21830;-26
2023/09/30 08:45:21;;;;;;;13.43;5.50;;;;;;;20.05;63.11;97621.66;10288275;28;20120;-26
2023/09/30 08:50:22;;;;;;;12.60;5.03;;;;;;;20.08;63.63;97652.19;10285054;28;20023;-27
2023/09/30 08:55:27;;;;;;;11.98;4.68;;;;;;;20.09;63.42;97658.97;10288260;28;20106;-26
2023/09/30 09:00:28;;;;;;;13.23;5.28;;;;;;;20.06;63.71;97658.94;10286912;28;20167;-26
2023/09/30 09:05:28;;;;;;;11.63;4.47;;;;;;;20.02;63.97;97654.66;10288792;28;20043;-26
2023/09/30 09:10:28;;;;;;;10.17;4.43;;;;;;;20.04;63.96;97650.41;10284264;28;20626;-26
2023/09/30 09:15:29;;;;;;;15.13;4.87;;;;;;;20.05;63.80;97635.22;10288989;28;20643;-27
2023/09/30 09:20:29;;;;;;;9.88;4.47;;;;;;;20.01;63.16;97630.06;10289079;28;20035;-27
2023/09/30 09:25:38;;;;;;;9.83;4.53;;;;;;;20.08;63.11;97636.94;10278355;28;20053;-26
2023/09/30 09:30:40;;;;;;;10.75;4.70;;;;;;;20.08;62.78;97621.69;10280271;28;20034;-25
2023/09/30 09:35:48;;;;;;;13.30;4.35;;;;;;;20.04;63.38;97615.72;10288515;28;20043;-27
2023/09/30 09:40:48;;;;;;;10.48;4.28;;;;;;;20.06;62.72;97596.25;10283255;28;20114;-26
2023/09/30 09:45:49;;;;;;;7.00;3.97;;;;;;;19.99;62.78;97593.59;10291688;28;20177;-27
2023/09/30 09:50:51;;;;;;;7.28;4.05;;;;;;;20.01;62.94;97579.22;10284650;28;20709;-26
2023/09/30 09:55:53;;;;;;;7.93;4.00;;;;;;;20.03;63.23;97572.47;10295597;28;20472;-25
2023/09/30 10:00:55;;;;;;;10.80;4.13;;;;;;;20.07;62.91;97579.28;10298708;28;20031;-26
2023/09/30 10:05:56;;;;;;;6.85;3.95;;;;;;;20.06;62.60;97567.41;10296266;28;20070;-26
2023/09/30 10:10:59;;;;;;;9.98;4.90;;;;;;;20.01;62.47;97563.97;10285648;28;20031;-27
2023/09/30 10:15:59;;;;;;;9.52;5.10;;;;;;;20.10;61.31;97567.44;10292690;28;20070;-25
2023/09/30 10:21:07;;;;;;;10.07;4.83;;;;;;;20.03;62.16;97569.91;10287583;28;20420;-27
2023/09/30 10:26:14;;;;;;;10.30;5.07;;;;;;;20.08;61.74;97578.47;10284764;28;20088;-27
2023/09/30 10:31:24;;;;;;;10.40;4.28;;;;;;;20.08;61.86;97560.69;10293872;28;20022;-26
2023/09/30 10:36:41;;;;;;;11.50;5.57;;;;;;;20.07;60.91;97558.94;10293417;28;20039;-27
2023/09/30 10:41:44;;;;;;;11.10;5.20;;;;;;;20.12;60.68;97558.16;10295496;28;20409;-27
2023/09/30 10:46:45;;;;;;;6.70;3.95;;;;;;;20.16;60.78;97559.00;10296635;28;20472;-27
2023/09/30 10:51:46;;;;;;;9.90;5.17;;;;;;;20.22;60.97;97564.16;10291392;28;20046;-27
2023/09/30 10:56:47;;;;;;;10.38;5.35;;;;;;;20.22;60.82;97571.78;10289305;28;20054;-26
2023/09/30 11:01:48;;;;;;;8.43;4.93;;;;;;;20.23;60.39;97556.53;10286982;28;20049;-27
2023/09/30 11:06:51;;;;;;;9.27;3.88;;;;;;;20.32;60.07;97564.22;10293346;28;20093;-26
2023/09/30 11:11:53;;;;;;;9.65;4.60;;;;;;;20.38;59.76;97560.84;10287311;28;20038;-27
2023/09/30 11:16:56;;;;;;;8.57;4.38;;;;;;;20.41;59.82;97559.19;10289906;28;20498;-27
2023/09/30 11:22:00;;;;;;;11.60;5.10;;;;;;;20.43;59.95;97558.34;10296334;28;20035;-27
2023/09/30 11:27:01;;;;;;;11.98;5.72;;;;;;;20.42;59.12;97538.84;10292666;28;20421;-28
2023/09/30 11:32:02;;;;;;;9.48;4.72;;;;;;;20.43;59.38;97543.09;10290890;28;20042;-25
2023/09/30 11:37:03;;;;;;;13.52;5.38;;;;;;;20.42;59.25;97535.44;10292371;28;20049;-27
2023/09/30 11:42:15;;;;;;;9.27;4.80;;;;;;;20.50;59.50;97532.13;10290164;28;20057;-26
2023/09/30 11:47:16;;;;;;;9.52;4.88;;;;;;;20.48;59.66;97528.69;10290714;28;20066;-27
2023/09/30 11:52:16;;;;;;;13.43;6.40;;;;;;;20.59;58.62;97527.06;10294443;28;20132;-27
2023/09/30 11:57:18;;;;;;;13.57;4.90;;;;;;;20.53;59.17;97527.03;10286082;28;20073;-27
2023/09/30 12:02:18;;;;;;;12.23;5.15;;;;;;;20.51;59.05;97523.63;10287032;28;20043;-25
2023/09/30 12:07:19;;;;;;;11.97;5.60;;;;;;;20.50;59.16;97524.47;10292925;28;20034;-27
2023/09/30 12:12:19;;;;;;;10.90;5.25;;;;;;;20.47;59.75;97531.25;10287387;28;20085;-26
2023/09/30 12:17:21;;;;;;;22.00;6.63;;;;;;;20.44;60.31;97532.06;10285217;28;21701;-27
2023/09/30 12:22:22;;;;;;;13.80;5.05;;;;;;;20.43;59.82;97525.28;10282757;28;20050;-26
2023/09/30 12:27:22;;;;;;;13.13;4.88;;;;;;;20.45;59.61;97523.59;10286779;28;20037;-27
2023/09/30 12:32:23;;;;;;;14.60;6.30;;;;;;;20.48;59.41;97507.50;10290237;28;20110;-26
2023/09/30 12:37:23;;;;;;;16.00;4.75;;;;;;;20.43;59.35;97510.03;10284570;28;20816;-26
2023/09/30 12:42:24;;;;;;;11.97;4.93;;;;;;;20.42;59.72;97515.09;10283999;28;20481;-27
2023/09/30 12:47:25;;;;;;;11.32;5.15;;;;;;;20.40;59.73;97517.63;10282508;28;20290;-27
2023/09/30 12:52:25;;;;;;;14.93;6.72;;;;;;;20.38;59.34;97517.63;10287186;28;20030;-27
2023/09/30 12:57:25;;;;;;;12.47;4.97;;;;;;;20.37;59.70;97514.25;10282122;28;20030;-26
2023/09/30 13:02:26;;;;;;;11.77;4.90;;;;;;;20.38;59.55;97515.06;10284464;28;20642;-26
2023/09/30 13:07:27;;;;;;;8.60;4.28;;;;;;;20.38;59.51;97519.31;10287561;28;20521;-27
2023/09/30 13:12:29;;;;;;;10.32;4.40;;;;;;;20.37;59.45;97511.69;10301399;28;20133;-26
2023/09/30 13:17:30;;;;;;;10.18;5.63;;;;;;;20.38;59.44;97515.06;10312576;28;20054;-27
2023/09/30 13:22:31;;;;;;;13.87;4.60;;;;;;;20.35;59.56;97512.53;10312545;28;20158;-27
2023/09/30 13:27:32;;;;;;;12.57;5.00;;;;;;;20.36;59.51;97507.41;10297685;28;20117;-26
2023/09/30 13:32:36;;;;;;;11.13;4.50;;;;;;;20.38;59.42;97520.16;10312079;28;20034;-26
2023/09/30 13:37:36;;;;;;;8.73;4.10;;;;;;;20.36;59.34;97521.84;10308620;28;20129;-26
2023/09/30 13:42:37;;;;;;;7.63;4.05;;;;;;;20.36;59.24;97519.31;10293516;28;20358;-27
2023/09/30 13:47:37;;;;;;;11.03;4.93;;;;;;;20.36;59.14;97526.94;10300326;28;20597;-26
2023/09/30 13:52:38;;;;;;;9.07;4.90;;;;;;;20.30;59.54;97511.63;10301824;28;20030;-27
2023/09/30 13:57:38;;;;;;;7.30;4.22;;;;;;;20.33;59.36;97512.50;10293368;28;20381;-27
2023/09/30 14:02:39;;;;;;;8.93;3.90;;;;;;;20.34;59.48;97503.19;10300703;28;20038;-26
2023/09/30 14:07:39;;;;;;;11.93;4.05;;;;;;;20.33;59.23;97504.03;10308617;28;20114;-26
2023/09/30 14:12:40;;;;;;;8.50;4.30;;;;;;;20.33;59.34;97504.88;10304557;28;20501;-26
2023/09/30 14:17:40;;;;;;;8.23;4.27;;;;;;;20.33;59.22;97504.03;10291852;28;20294;-27
2023/09/30 14:22:41;;;;;;;7.43;3.67;;;;;;;20.33;59.15;97496.41;10286346;28;20352;-26
2023/09/30 14:27:41;;;;;;;8.75;3.97;;;;;;;20.33;59.29;97501.50;10307240;28;20524;-26
2023/09/30 14:32:42;;;;;;;15.23;6.20;;;;;;;20.36;59.74;97501.50;10305337;28;20129;-25
2023/09/30 14:37:42;;;;;;;6.47;3.63;;;;;;;20.35;59.11;97498.09;10301785;28;20513;-26
2023/09/30 14:42:43;;;;;;;9.80;4.00;;;;;;;20.36;58.93;97501.50;10303757;28;20041;-26
2023/09/30 14:47:43;;;;;;;5.87;3.63;;;;;;;20.34;59.06;97498.09;10309583;28;20044;-27
2023/09/30 14:52:43;;;;;;;8.83;3.90;;;;;;;20.33;58.94;97493.88;10317841;28;20034;-26
2023/09/30 14:57:44;;;;;;;6.73;3.10;;;;;;;20.32;59.21;97493.00;10303456;28;20038;-26
2023/09/30 15:02:44;;;;;;;9.63;3.83;;;;;;;20.33;59.05;97496.41;10309598;28;20053;-27
2023/09/30 15:07:45;;;;;;;6.53;3.13;;;;;;;20.30;59.15;97487.06;10317396;28;20030;-27
2023/09/30 15:12:46;;;;;;;8.38;3.90;;;;;;;20.31;59.08;97483.69;10308237;28;20022;-27
2023/09/30 15:17:47;;;;;;;8.32;4.18;;;;;;;20.29;59.17;97485.38;10316123;28;20116;-27
2023/09/30 15:22:47;;;;;;;7.45;3.45;;;;;;;20.32;58.98;97489.59;10314134;28;20084;-27
2023/09/30 15:27:47;;;;;;;6.63;3.37;;;;;;;20.32;58.98;97485.38;10313705;28;20038;-26
2023/09/30 15:32:48;;;;;;;6.43;3.40;;;;;;;20.31;58.86;97488.75;10308761;28;20793;-26
2023/09/30 15:37:49;;;;;;;6.90;3.13;;;;;;;20.31;58.75;97493.00;10306669;28;20038;-27
2023/09/30 15:42:51;;;;;;;8.88;3.63;;;;;;;20.30;59.04;97504.00;10292965;28;20281;-27
2023/09/30 15:47:52;;;;;;;12.63;3.92;;;;;;;20.32;58.96;97504.84;10307485;28;20034;-27
2023/09/30 15:52:52;;;;;;;7.40;3.70;;;;;;;20.36;60.16;97506.59;10310200;28;20034;-27
2023/09/30 15:57:55;;;;;;;9.32;3.78;;;;;;;20.36;59.82;97511.69;10296679;28;20030;-26
2023/09/30 16:02:57;;;;;;;6.13;3.40;;;;;;;20.33;59.29;97516.75;10303994;28;20034;-27
2023/09/30 16:07:58;;;;;;;10.32;3.47;;;;;;;20.31;59.46;97518.41;10310739;28;20090;-27
2023/09/30 16:12:59;;;;;;;6.93;3.30;;;;;;;20.31;59.15;97518.41;10303991;28;20049;-27
2023/09/30 16:17:59;;;;;;;6.90;2.83;;;;;;;20.30;59.04;97519.25;10308418;28;20443;-27
2023/09/30 16:23:00;;;;;;;7.23;4.13;;;;;;;20.30;59.00;97521.81;10314240;28;20107;-26
2023/09/30 16:28:00;;;;;;;7.47;4.20;;;;;;;20.28;59.13;97519.25;10307966;28;20034;-28
2023/09/30 16:33:00;;;;;;;11.95;3.03;;;;;;;20.23;59.51;97525.16;10302653;28;20038;-27
2023/09/30 16:38:01;;;;;;;12.87;4.73;;;;;;;20.28;59.72;97520.97;10311390;28;20516;-26
2023/09/30 16:43:01;;;;;;;9.13;3.50;;;;;;;20.28;59.08;97519.25;10291280;28;20440;-27
2023/09/30 16:48:02;;;;;;;12.20;3.57;;;;;;;20.29;58.93;97530.28;10301524;28;20033;-27
2023/09/30 16:53:02;;;;;;;9.85;3.33;;;;;;;20.28;58.74;97518.41;10306638;28;20344;-27
2023/09/30 16:58:03;;;;;;;8.48;3.55;;;;;;;20.29;58.82;97522.66;10304395;28;20049;-28
2023/09/30 17:03:06;;;;;;;54.92;14.25;;;;;;;20.36;61.44;97516.75;10306671;28;20077;-26
2023/09/30 17:08:06;;;;;;;19.35;4.45;;;;;;;20.33;59.34;97516.75;10311226;28;20076;-27
2023/09/30 17:13:06;;;;;;;20.50;4.80;;;;;;;20.31;59.06;97523.50;10304431;28;20103;-27
2023/09/30 17:18:07;;;;;;;29.87;6.80;;;;;;;20.31;59.18;97524.38;10306395;28;20397;-27
2023/09/30 17:23:07;;;;;;;19.27;5.65;;;;;;;20.31;59.10;97526.03;10290366;28;20592;-26
2023/09/30 17:28:08;;;;;;;39.93;15.03;;;;;;;20.31;59.21;97529.47;10289362;28;20105;-26
2023/09/30 17:33:08;;;;;;;12.80;5.28;;;;;;;20.31;59.00;97529.47;10285594;28;20031;-26
2023/09/30 17:38:09;;;;;;;13.63;4.13;;;;;;;20.31;59.05;97534.53;10298436;28;20042;-27
2023/09/30 17:43:11;;;;;;;24.52;10.15;;;;;;;20.33;59.21;97532.03;10293665;28;20043;-26
2023/09/30 17:48:16;;;;;;;18.52;10.48;;;;;;;20.30;59.55;97537.94;10282950;28;20042;-27
2023/09/30 17:53:16;;;;;;;19.23;9.73;;;;;;;20.21;59.90;97534.47;10289279;28;20045;-27
2023/09/30 17:58:17;;;;;;;14.77;8.23;;;;;;;20.24;59.31;97549.75;10293216;28;20069;-27
2023/09/30 18:03:17;;;;;;;24.20;8.90;;;;;;;20.24;59.58;97547.19;10298184;28;20030;-26
2023/09/30 18:08:18;;;;;;;17.00;8.27;;;;;;;20.37;58.83;97538.81;10304473;28;20356;-26
2023/09/30 18:13:18;;;;;;;42.83;10.43;;;;;;;20.32;59.16;97546.41;10307167;28;20034;-26
2023/09/30 18:18:18;;;;;;;19.23;8.47;;;;;;;20.38;58.74;97545.59;10310018;28;20514;-27
2023/09/30 18:23:19;;;;;;;15.37;5.20;;;;;;;20.30;58.72;97535.38;10299155;28;20041;-26
2023/09/30 18:28:19;;;;;;;17.63;4.90;;;;;;;20.32;58.67;97550.63;10304185;28;20763;-26
2023/09/30 18:33:20;;;;;;;14.77;5.30;;;;;;;20.32;58.85;97540.47;10301985;28;20199;-27
2023/09/30 18:38:20;;;;;;;12.60;5.53;;;;;;;20.31;58.93;97539.63;10311565;28;20046;-27
2023/09/30 18:43:23;;;;;;;15.47;5.43;;;;;;;20.30;58.64;97539.59;10311800;28;20524;-27
2023/09/30 18:48:25;;;;;;;11.85;4.68;;;;;;;20.29;58.57;97550.63;10307226;28;20286;-25
2023/09/30 18:53:25;;;;;;;14.13;5.97;;;;;;;20.29;58.41;97559.13;10306726;28;20104;-26
2023/09/30 18:58:25;;;;;;;9.33;4.53;;;;;;;20.29;58.82;97565.88;10308900;28;20109;-26
2023/09/30 19:03:27;;;;;;;14.10;4.87;;;;;;;20.27;58.56;97567.56;10298394;28;20444;-26
2023/09/30 19:08:28;;;;;;;8.35;4.57;;;;;;;20.28;58.56;97577.75;10302570;28;20492;-27
2023/09/30 19:13:28;;;;;;;9.33;4.20;;;;;;;20.28;58.72;97579.44;10295576;28;20054;-27
2023/09/30 19:18:28;;;;;;;9.20;4.57;;;;;;;20.27;58.65;97583.66;10284559;28;20748;-27
2023/09/30 19:23:31;;;;;;;11.67;4.57;;;;;;;20.27;58.64;97583.66;10289010;28;20474;-27
2023/09/30 19:28:31;;;;;;;10.30;4.22;;;;;;;20.26;58.86;97587.06;10304511;28;20035;-27
2023/09/30 19:33:32;;;;;;;6.68;3.60;;;;;;;20.27;58.44;97588.75;10296247;28;20037;-27
2023/09/30 19:38:32;;;;;;;9.87;3.83;;;;;;;20.26;58.53;97587.06;10303948;28;20035;-26
2023/09/30 19:43:33;;;;;;;6.67;3.27;;;;;;;20.27;58.41;97585.38;10302831;28;20489;-27
2023/09/30 19:48:36;;;;;;;6.63;3.20;;;;;;;20.26;58.49;97578.59;10305229;28;20038;-27
2023/09/30 19:53:36;;;;;;;7.13;3.10;;;;;;;20.21;58.34;97572.63;10299486;28;21101;-26
2023/09/30 19:58:37;;;;;;;5.93;3.10;;;;;;;20.25;58.58;97584.53;10307529;28;20122;-26
2023/09/30 20:03:37;;;;;;;8.43;3.63;;;;;;;20.23;58.61;97586.19;10301786;28;20041;-26
2023/09/30 20:08:37;;;;;;;6.43;3.33;;;;;;;20.24;58.38;97592.97;10301377;28;20035;-27
2023/09/30 20:13:38;;;;;;;5.63;3.10;;;;;;;20.24;58.47;97592.97;10306016;28;20043;-27
2023/09/30 20:18:40;;;;;;;5.65;3.22;;;;;;;20.22;58.30;97589.56;10298354;28;20513;-27
2023/09/30 20:23:41;;;;;;;4.00;2.40;;;;;;;20.21;58.32;97587.88;10297489;28;20043;-27
2023/09/30 20:28:42;;;;;;;4.32;2.92;;;;;;;20.22;58.25;97590.44;10303488;28;20495;-27
2023/09/30 20:33:43;;;;;;;4.27;2.50;;;;;;;20.22;58.26;97594.66;10301124;28;20133;-26
2023/09/30 20:38:43;;;;;;;5.63;2.95;;;;;;;20.21;58.31;97592.97;10300358;28;20478;-26
2023/09/30 20:43:44;;;;;;;4.20;2.40;;;;;;;20.17;58.38;97586.16;10299877;28;20038;-26
2023/09/30 20:48:45;;;;;;;3.90;2.20;;;;;;;20.24;58.24;97577.72;10299404;28;20031;-26
2023/09/30 20:53:48;;;;;;;4.80;2.40;;;;;;;20.30;58.08;97582.84;10294987;28;20031;-26
2023/09/30 20:58:50;;;;;;;8.27;3.35;;;;;;;20.34;58.14;97582.03;10297774;28;20494;-26
2023/09/30 21:03:50;;;;;;;4.90;3.10;;;;;;;20.37;57.83;97585.47;10300626;28;20117;-27
2023/09/30 21:08:51;;;;;;;4.85;3.10;;;;;;;20.38;57.78;97583.75;10291690;28;20031;-26
2023/09/30 21:13:51;;;;;;;4.70;2.60;;;;;;;20.38;58.00;97588.84;10300238;28;20042;-27
2023/09/30 21:18:52;;;;;;;4.93;2.70;;;;;;;20.40;57.64;97586.28;10294925;28;20043;-26
2023/09/30 21:23:53;;;;;;;5.60;2.80;;;;;;;20.42;57.60;97595.66;10296958;28;20034;-26
2023/09/30 21:28:53;;;;;;;5.82;2.95;;;;;;;20.43;57.95;97601.59;10296792;28;20065;-26
2023/09/30 21:33:54;;;;;;;5.60;3.33;;;;;;;20.43;57.73;97601.59;10297415;28;20062;-27
2023/09/30 21:38:55;;;;;;;4.95;2.83;;;;;;;20.44;57.89;97608.38;10295280;28;20295;-27
2023/09/30 21:43:55;;;;;;;6.43;3.20;;;;;;;20.43;57.84;97606.69;10298168;28;20089;-27
2023/09/30 21:48:55;;;;;;;5.73;2.90;;;;;;;20.42;57.74;97610.91;10296765;28;20042;-27
2023/09/30 21:53:56;;;;;;;6.40;3.40;;;;;;;20.43;57.77;97613.44;10300168;28;20031;-27
2023/09/30 21:58:56;;;;;;;5.53;2.80;;;;;;;20.44;57.61;97621.09;10304853;28;20672;-26
2023/09/30 22:03:56;;;;;;;7.30;3.33;;;;;;;20.42;57.69;97618.56;10301252;28;20045;-26
2023/09/30 22:08:57;;;;;;;5.60;3.40;;;;;;;20.42;57.71;97609.22;10300623;28;20031;-27
2023/09/30 22:14:01;;;;;;;4.47;3.00;;;;;;;20.40;57.83;97616.00;10298975;28;20031;-26
2023/09/30 22:19:02;;;;;;;5.85;3.17;;;;;;;20.39;57.64;97621.91;10286030;28;20035;-26
2023/09/30 22:24:03;;;;;;;5.60;3.53;;;;;;;20.39;57.99;97630.38;10294471;28;20038;-27
2023/09/30 22:29:03;;;;;;;7.82;3.47;;;;;;;20.38;57.67;97631.22;10299685;28;20101;-27
2023/09/30 22:34:04;;;;;;;4.20;2.55;;;;;;;20.40;58.01;97616.81;10289357;28;20031;-26
2023/09/30 22:39:04;;;;;;;5.53;2.93;;;;;;;20.29;57.82;97614.22;10291430;28;20038;-27
2023/09/30 22:44:05;;;;;;;4.70;2.70;;;;;;;20.24;57.50;97615.84;10303489;28;20093;-29
2023/09/30 22:49:06;;;;;;;5.05;3.30;;;;;;;20.22;57.31;97617.53;10298412;28;20290;-27
2023/09/30 22:54:07;;;;;;;5.63;3.63;;;;;;;20.19;56.80;97626.00;10297872;28;20035;-27
2023/09/30 22:59:09;;;;;;;4.97;3.05;;;;;;;20.18;56.84;97621.75;10300950;28;20485;-26
2023/09/30 23:04:10;;;;;;;7.45;3.53;;;;;;;20.17;56.84;97626.84;10296639;28;20057;-27
2023/09/30 23:09:10;;;;;;;7.00;3.83;;;;;;;20.18;56.77;97633.63;10290044;28;20038;-27
2023/09/30 23:14:11;;;;;;;7.77;4.40;;;;;;;20.15;56.51;97634.44;10287210;28;20030;-27